Time;durP1;ratioP1;P1;durP2;ratioP2;P2;SDS_P1;SDS_P2;PMS_P1;PMS_P2;Temp;Humidity;BMP_temperature;BMP_pressure;BME280_temperature;BME280_humidity;BME280_pressure;Samples;Min_cycle;Max_cycle;Signal;HPM_P1;HPM_P2
2020/12/26 00:01:21;;;;;;;13.77;6.60;;;0.80;81.60;;;1.35;68.96;98281.09;5021858;28;20060;-46
2020/12/26 00:03:50;;;;;;;16.33;8.67;;;0.80;81.80;;;1.34;68.72;98287.31;5021884;28;20042;-48
2020/12/26 00:06:19;;;;;;;14.47;8.50;;;0.80;81.70;;;1.34;68.82;98287.31;5021509;28;20056;-47
2020/12/26 00:08:48;;;;;;;14.57;6.70;;;0.90;81.70;;;1.32;69.25;98279.53;5004532;28;20273;-45
2020/12/26 00:11:19;;;;;;;12.93;6.63;;;0.80;81.50;;;1.31;68.54;98277.81;5021839;28;20048;-44
2020/12/26 00:13:49;;;;;;;9.93;5.63;;;0.80;82.20;;;1.29;68.18;98279.69;5022015;28;20226;-46
2020/12/26 00:16:18;;;;;;;13.97;7.17;;;0.80;81.50;;;1.28;68.50;98271.88;5021510;28;20249;-47
2020/12/26 00:18:46;;;;;;;11.90;7.07;;;0.80;81.30;;;1.26;68.47;98274.63;5021779;28;20056;-48
2020/12/26 00:21:16;;;;;;;15.07;8.07;;;0.80;81.20;;;1.26;68.59;98277.25;5021819;28;20050;-45
2020/12/26 00:23:44;;;;;;;16.20;8.73;;;0.80;81.20;;;1.23;68.51;98274.78;5021245;28;20058;-46
2020/12/26 00:26:17;;;;;;;14.77;7.40;;;0.80;81.10;;;1.21;68.34;98278.44;5021520;28;20045;-45
2020/12/26 00:28:45;;;;;;;12.03;7.27;;;0.70;81.10;;;1.16;68.68;98290.03;5004007;28;20207;-46
2020/12/26 00:31:16;;;;;;;11.63;6.03;;;0.70;81.00;;;1.15;68.66;98287.50;5021607;28;20038;-45
2020/12/26 00:33:44;;;;;;;13.33;7.13;;;0.60;80.90;;;1.12;68.17;98285.88;5021756;28;20211;-44
2020/12/26 00:36:11;;;;;;;11.97;7.37;;;0.60;81.10;;;1.10;68.54;98281.66;5021435;28;20050;-47
2020/12/26 00:38:39;;;;;;;14.10;6.27;;;0.60;81.00;;;1.09;68.93;98290.47;5021747;28;20354;-44
2020/12/26 00:41:12;;;;;;;13.07;6.47;;;0.60;80.90;;;1.06;68.21;98293.25;5021600;28;20048;-47
2020/12/26 00:43:40;;;;;;;14.50;6.87;;;0.60;80.90;;;1.03;68.01;98304.78;5003700;28;20217;-46
2020/12/26 00:46:07;;;;;;;15.83;7.93;;;0.60;80.90;;;1.01;68.33;98296.16;5021362;28;20041;-46
2020/12/26 00:48:35;;;;;;;30.53;13.13;;;0.50;80.90;;;1.00;68.51;98299.69;5025253;28;20037;-45
2020/12/26 00:51:03;;;;;;;18.37;8.27;;;0.50;80.80;;;0.98;68.05;98299.75;5025149;28;20242;-45
2020/12/26 00:53:33;;;;;;;16.23;7.00;;;0.50;81.00;;;0.97;68.49;98311.19;5023572;28;20353;-45
2020/12/26 00:56:01;;;;;;;17.03;7.60;;;0.40;81.10;;;0.93;68.92;98314.06;5007138;28;20050;-45
2020/12/26 00:58:28;;;;;;;14.47;6.80;;;0.30;81.90;;;0.91;67.85;98305.44;5007125;28;20049;-44
2020/12/26 01:00:56;;;;;;;14.70;6.70;;;0.30;81.80;;;0.86;69.05;98302.25;5007783;28;20346;-44
2020/12/26 01:03:42;;;;;;;15.93;9.33;;;0.30;81.80;;;0.84;68.03;98299.69;5028353;28;20052;-44
2020/12/26 01:06:15;;;;;;;15.73;8.87;;;0.30;82.00;;;0.84;68.18;98301.47;5024087;28;20054;-44
2020/12/26 01:08:43;;;;;;;21.58;9.25;;;0.40;81.80;;;0.83;68.37;98303.22;5024606;28;20046;-49
2020/12/26 01:11:11;;;;;;;18.10;8.73;;;0.40;81.60;;;0.83;68.48;98312.88;5024844;28;20046;-46
2020/12/26 01:13:38;;;;;;;20.10;11.03;;;0.30;81.60;;;0.82;68.04;98314.66;5024266;28;20053;-46
2020/12/26 01:16:06;;;;;;;21.03;7.93;;;0.30;82.00;;;0.75;69.37;98313.28;5024370;28;20053;-46
2020/12/26 01:18:34;;;;;;;15.27;7.60;;;0.20;82.80;;;0.68;69.26;98320.66;5024421;28;20060;-45
2020/12/26 01:21:04;;;;;;;18.50;7.20;;;0.10;83.10;;;0.64;69.42;98324.38;5024653;28;20042;-49
2020/12/26 01:23:32;;;;;;;14.97;7.17;;;0.10;83.60;;;0.58;68.99;98327.31;5024997;28;20046;-45
2020/12/26 01:26:00;;;;;;;18.60;7.73;;;0.00;84.00;;;0.62;69.72;98339.34;5023551;28;20342;-47
2020/12/26 01:28:27;;;;;;;14.17;7.40;;;0.10;84.00;;;0.64;69.04;98342.72;5024268;28;20054;-45
2020/12/26 01:30:55;;;;;;;17.30;7.00;;;0.10;83.70;;;0.66;69.31;98340.88;5024416;28;20242;-44
2020/12/26 01:33:23;;;;;;;14.93;8.20;;;0.20;83.40;;;0.68;69.24;98346.88;5024871;28;20048;-47
2020/12/26 01:35:50;;;;;;;15.03;7.97;;;0.20;83.50;;;0.71;69.29;98348.47;5023678;28;20249;-47
2020/12/26 01:38:17;;;;;;;15.67;7.33;;;0.20;83.70;;;0.73;69.90;98363.19;5024170;28;20046;-48
2020/12/26 01:40:49;;;;;;;15.70;7.47;;;0.20;83.70;;;0.77;69.67;98359.47;5024007;28;20056;-45
2020/12/26 01:43:18;;;;;;;15.30;7.47;;;0.30;84.40;;;0.83;69.30;98363.53;5024261;28;20263;-46
2020/12/26 01:45:46;;;;;;;12.80;7.70;;;0.40;83.40;;;0.89;69.90;98368.47;5023709;28;20042;-46
2020/12/26 01:48:17;;;;;;;17.60;7.60;;;0.50;83.30;;;0.92;70.03;98357.78;5024003;28;20052;-49
2020/12/26 01:50:46;;;;;;;14.77;7.87;;;0.50;83.20;;;0.98;69.67;98362.69;5023497;28;20061;-46
2020/12/26 01:53:13;;;;;;;13.93;7.67;;;0.50;83.20;;;1.03;69.34;98365.09;5006707;28;20046;-45
2020/12/26 01:55:41;;;;;;;16.90;8.47;;;0.60;82.80;;;1.07;69.38;98365.78;5006385;28;20050;-46
2020/12/26 01:58:14;;;;;;;16.43;8.17;;;0.60;83.20;;;1.09;69.55;98372.63;5005569;28;20053;-46
2020/12/26 02:00:42;;;;;;;17.50;7.90;;;0.70;82.60;;;1.12;69.80;98369.81;5023981;28;20144;-45
2020/12/26 02:03:10;;;;;;;17.50;8.67;;;0.70;82.40;;;1.16;69.17;98368.72;5023777;28;20064;-47
2020/12/26 02:05:37;;;;;;;15.70;7.07;;;0.80;82.20;;;1.19;69.73;98372.94;5022701;28;20057;-47
2020/12/26 02:08:05;;;;;;;11.73;6.77;;;0.80;82.10;;;1.21;69.51;98378.97;5023656;28;20342;-47
2020/12/26 02:10:33;;;;;;;18.03;8.37;;;0.80;82.20;;;1.23;69.85;98376.25;5023117;28;20250;-46
2020/12/26 02:13:01;;;;;;;18.33;7.77;;;0.80;82.20;;;1.25;69.36;98369.97;5006414;28;20045;-45
2020/12/26 02:15:28;;;;;;;16.77;8.73;;;0.80;82.20;;;1.28;69.35;98363.72;5022495;28;20215;-45
2020/12/26 02:17:56;;;;;;;17.07;8.73;;;0.90;82.20;;;1.30;69.84;98372.34;5023134;28;20071;-46
2020/12/26 02:20:35;;;;;;;14.73;7.93;;;0.90;82.10;;;1.32;69.61;98363.47;5023581;28;20056;-44
2020/12/26 02:23:04;;;;;;;16.00;9.07;;;0.90;82.30;;;1.36;69.53;98370.22;5023570;28;20056;-46
2020/12/26 02:25:32;;;;;;;14.87;7.83;;;1.00;82.10;;;1.38;69.79;98375.41;5023031;28;20203;-47
2020/12/26 02:28:00;;;;;;;13.63;7.13;;;0.90;81.80;;;1.40;69.38;98370.91;5022914;28;20056;-46
2020/12/26 02:30:27;;;;;;;18.77;7.73;;;0.90;81.80;;;1.40;69.64;98370.91;5022814;28;20238;-45
2020/12/26 02:32:54;;;;;;;18.60;7.40;;;0.90;81.80;;;1.40;68.81;98370.91;5023380;28;20060;-47
2020/12/26 02:35:22;;;;;;;17.40;8.23;;;1.00;81.80;;;1.40;69.17;98367.41;5022902;28;20052;-46
2020/12/26 02:37:50;;;;;;;14.30;7.10;;;1.00;81.50;;;1.40;69.58;98370.91;5022641;28;20050;-46
2020/12/26 02:40:17;;;;;;;14.93;7.43;;;1.00;81.20;;;1.42;69.11;98379.53;5023172;28;20068;-46
2020/12/26 02:42:45;;;;;;;13.60;7.23;;;1.00;81.10;;;1.42;69.42;98378.72;5023139;28;20061;-45
2020/12/26 02:45:13;;;;;;;16.67;7.80;;;1.00;81.00;;;1.41;69.14;98375.22;5005382;28;20049;-45
2020/12/26 02:47:40;;;;;;;17.07;7.87;;;0.90;81.20;;;1.41;69.38;98377.84;5020940;28;20045;-44
2020/12/26 02:50:08;;;;;;;15.97;7.93;;;0.90;81.30;;;1.42;69.04;98379.53;5022230;28;20060;-47
2020/12/26 02:52:37;;;;;;;16.53;8.20;;;1.00;81.30;;;1.43;69.05;98380.38;5022641;28;20072;-44
2020/12/26 02:55:04;;;;;;;19.37;8.43;;;1.00;81.40;;;1.42;68.88;98382.16;5022044;28;20053;-44
2020/12/26 02:57:32;;;;;;;14.43;7.67;;;1.00;81.20;;;1.42;69.06;98371.66;5022921;28;20052;-48
2020/12/26 03:00:00;;;;;;;17.50;7.90;;;0.90;81.30;;;1.42;69.25;98363.81;5022921;28;20050;-44
2020/12/26 03:02:27;;;;;;;14.97;7.73;;;0.90;81.40;;;1.43;68.96;98369.88;5023051;28;20044;-44
2020/12/26 03:04:54;;;;;;;15.50;8.83;;;1.00;81.50;;;1.43;68.96;98375.97;5022313;28;20054;-48
2020/12/26 03:07:22;;;;;;;19.33;8.23;;;1.00;81.40;;;1.45;69.71;98379.34;5022541;28;20056;-46
2020/12/26 03:09:50;;;;;;;12.80;7.13;;;1.10;81.00;;;1.46;69.08;98381.06;5022344;28;20253;-45
2020/12/26 03:12:17;;;;;;;17.07;8.20;;;1.10;81.00;;;1.50;69.34;98379.13;5021932;28;20050;-47
2020/12/26 03:14:44;;;;;;;18.37;8.07;;;1.20;81.00;;;1.52;69.35;98378.09;5021150;28;20041;-46
2020/12/26 03:17:13;;;;;;;15.80;8.33;;;1.20;81.00;;;1.56;69.16;98381.38;5022256;28;20042;-45
2020/12/26 03:19:40;;;;;;;17.67;7.70;;;1.30;80.90;;;1.58;69.33;98377.72;5021815;28;20281;-46
2020/12/26 03:22:08;;;;;;;15.57;7.90;;;1.30;80.80;;;1.64;69.50;98381.78;5022451;28;20046;-45
2020/12/26 03:24:35;;;;;;;17.80;7.47;;;1.40;80.70;;;1.68;69.36;98375.44;5022260;28;20042;-45
2020/12/26 03:27:03;;;;;;;15.20;7.17;;;1.40;80.60;;;1.72;69.50;98376.09;5021535;28;20054;-44
2020/12/26 03:29:31;;;;;;;17.13;7.80;;;1.50;80.70;;;1.73;69.40;98380.44;5022530;28;20053;-45
2020/12/26 03:31:58;;;;;;;15.70;7.17;;;1.50;80.50;;;1.76;69.15;98396.00;5022193;28;20052;-44
2020/12/26 03:34:25;;;;;;;15.53;7.53;;;1.40;80.10;;;1.76;69.50;98390.75;5021305;28;20057;-46
2020/12/26 03:36:53;;;;;;;12.60;6.33;;;1.40;80.10;;;1.77;69.11;98398.53;5021742;28;20246;-44
2020/12/26 03:39:20;;;;;;;19.20;8.23;;;1.40;80.10;;;1.77;68.91;98397.69;5022219;28;20046;-44
2020/12/26 03:41:48;;;;;;;15.27;7.10;;;1.40;79.80;;;1.76;68.63;98393.38;5022313;28;20056;-45
2020/12/26 03:44:15;;;;;;;14.83;7.87;;;1.30;80.30;;;1.72;69.15;98397.09;5022560;28;20211;-45
2020/12/26 03:46:43;;;;;;;13.10;7.63;;;1.30;79.80;;;1.71;68.74;98404.16;5021637;28;20038;-46
2020/12/26 03:49:10;;;;;;;15.07;8.30;;;1.20;80.30;;;1.69;68.56;98399.91;5022156;28;20241;-45
2020/12/26 03:51:38;;;;;;;16.63;8.30;;;1.20;80.20;;;1.69;69.45;98410.44;5022273;28;20046;-47
2020/12/26 03:54:05;;;;;;;16.70;7.80;;;1.20;80.40;;;1.66;69.33;98407.97;5022150;28;20053;-46
2020/12/26 03:56:33;;;;;;;14.63;7.93;;;1.20;80.60;;;1.64;68.73;98404.56;5021670;28;20053;-45
2020/12/26 03:59:01;;;;;;;18.60;7.73;;;1.10;80.80;;;1.64;68.81;98405.41;5022003;28;20076;-47
2020/12/26 04:01:28;;;;;;;15.67;7.90;;;1.10;80.80;;;1.58;68.72;98406.59;5022048;28;20064;-45
2020/12/26 04:03:55;;;;;;;17.53;9.13;;;1.10;80.70;;;1.60;69.16;98403.06;5021992;28;20385;-46
2020/12/26 04:06:23;;;;;;;17.97;8.83;;;1.00;81.00;;;1.56;69.21;98408.47;5021501;28;20046;-45
2020/12/26 04:08:50;;;;;;;15.00;7.80;;;1.00;80.90;;;1.55;69.12;98409.41;5021915;28;20042;-45
2020/12/26 04:11:18;;;;;;;17.33;8.67;;;0.90;81.30;;;1.56;68.71;98402.38;5021197;28;20369;-47
2020/12/26 04:13:45;;;;;;;16.23;7.57;;;1.00;81.60;;;1.58;69.09;98406.59;5022002;28;20052;-47
2020/12/26 04:16:13;;;;;;;16.63;8.20;;;1.10;81.60;;;1.62;69.56;98404.66;5021449;28;20060;-47
2020/12/26 04:18:40;;;;;;;19.67;8.60;;;1.20;81.30;;;1.66;69.46;98400.91;5021726;28;20038;-47
2020/12/26 04:21:08;;;;;;;20.73;9.60;;;1.30;81.10;;;1.70;68.84;98399.81;5021958;28;20049;-45
2020/12/26 04:23:37;;;;;;;18.80;8.27;;;1.40;80.90;;;1.74;69.38;98401.31;5025789;28;20045;-46
2020/12/26 04:26:09;;;;;;;17.90;8.50;;;1.40;80.60;;;1.77;69.03;98402.94;5025261;28;20281;-44
2020/12/26 04:28:37;;;;;;;18.50;8.70;;;1.40;80.60;;;1.79;69.73;98397.63;5025607;28;20046;-47
2020/12/26 04:31:04;;;;;;;17.30;8.70;;;1.40;80.20;;;1.80;68.87;98404.53;5025459;28;20046;-45
2020/12/26 04:33:32;;;;;;;17.97;8.77;;;1.40;80.30;;;1.83;69.22;98402.59;5025664;28;20050;-45
2020/12/26 04:35:59;;;;;;;18.13;8.90;;;1.50;80.20;;;1.83;68.56;98405.22;5025061;28;20053;-46
2020/12/26 04:38:27;;;;;;;17.07;9.17;;;1.40;80.30;;;1.80;69.15;98408.00;5025539;28;20238;-44
2020/12/26 04:40:54;;;;;;;16.07;9.00;;;1.40;79.70;;;1.79;69.22;98410.75;5025491;28;20080;-44
2020/12/26 04:43:22;;;;;;;18.13;8.97;;;1.40;80.20;;;1.72;68.74;98411.06;5025267;28;20345;-45
2020/12/26 04:45:55;;;;;;;21.43;10.47;;;1.30;80.60;;;1.76;69.03;98410.00;5006863;28;20053;-47
2020/12/26 04:48:25;;;;;;;20.43;8.77;;;1.30;80.80;;;1.73;68.82;98415.41;5024847;28;20064;-45
2020/12/26 04:51:01;;;;;;;27.97;9.37;;;1.30;80.80;;;1.72;69.23;98412.84;5025208;28;20042;-44
2020/12/26 04:53:43;;;;;;;22.00;10.03;;;1.20;80.70;;;1.63;68.83;98418.63;5024749;28;20050;-45
2020/12/26 04:56:12;;;;;;;17.73;10.00;;;1.20;81.20;;;1.55;69.56;98412.03;5007253;28;20076;-45
2020/12/26 04:58:40;;;;;;;23.10;9.70;;;1.10;81.50;;;1.61;68.88;98415.22;5025150;28;20053;-44
2020/12/26 05:01:09;;;;;;;18.80;8.70;;;1.10;81.80;;;1.64;69.08;98415.91;5025055;28;20056;-48
2020/12/26 05:03:40;;;;;;;21.43;9.43;;;1.20;82.40;;;1.69;69.55;98427.00;5007647;28;20060;-44
2020/12/26 05:06:09;;;;;;;23.20;8.70;;;1.30;81.60;;;1.73;69.09;98427.69;5007461;28;20042;-47
2020/12/26 05:08:37;;;;;;;17.90;9.20;;;1.30;81.40;;;1.67;68.97;98431.50;5007869;28;20383;-45
2020/12/26 05:11:04;;;;;;;15.43;8.33;;;1.20;81.20;;;1.61;69.15;98429.22;5024888;28;20052;-46
2020/12/26 05:13:40;;;;;;;19.10;8.80;;;1.20;81.40;;;1.58;69.25;98430.22;5025007;28;20056;-46
2020/12/26 05:16:09;;;;;;;17.13;8.53;;;1.10;81.50;;;1.62;68.91;98428.28;5024433;28;20064;-49
2020/12/26 05:18:38;;;;;;;15.10;8.23;;;1.10;81.90;;;1.63;69.50;98432.63;5023934;28;20056;-46
2020/12/26 05:21:06;;;;;;;17.00;9.07;;;1.20;81.80;;;1.63;69.63;98426.50;5024486;28;20076;-45
2020/12/26 05:23:35;;;;;;;17.40;7.97;;;1.20;81.70;;;1.66;69.24;98423.72;5024630;28;20057;-48
2020/12/26 05:26:02;;;;;;;18.20;9.20;;;1.20;81.80;;;1.66;68.92;98416.66;5024077;28;20041;-45
2020/12/26 05:28:33;;;;;;;17.20;8.90;;;1.20;81.60;;;1.69;68.96;98423.56;5024203;28;20050;-48
2020/12/26 05:31:07;;;;;;;15.87;8.90;;;1.20;81.70;;;1.70;68.83;98412.09;5043697;22;20063;-46
2020/12/26 05:33:34;;;;;;;18.52;8.65;;;1.20;81.70;;;1.67;68.82;98400.00;5044029;28;20068;-45
2020/12/26 05:36:05;;;;;;;17.67;8.17;;;1.20;81.60;;;1.69;69.35;98402.56;5042953;28;20394;-45
2020/12/26 05:38:33;;;;;;;16.07;8.10;;;1.20;81.20;;;1.68;68.95;98412.19;5043743;28;20057;-45
2020/12/26 05:41:02;;;;;;;18.77;8.23;;;1.20;81.10;;;1.61;69.22;98402.13;5043417;28;20056;-47
2020/12/26 05:43:32;;;;;;;17.73;7.80;;;1.10;81.20;;;1.60;69.30;98397.81;5044085;28;20051;-48
2020/12/26 05:46:00;;;;;;;16.00;8.23;;;1.10;81.60;;;1.60;68.76;98390.78;5024864;28;20049;-46
2020/12/26 05:48:28;;;;;;;20.83;10.43;;;1.10;81.50;;;1.60;69.32;98393.41;5041868;28;20050;-44
2020/12/26 05:51:01;;;;;;;17.83;8.53;;;1.10;81.20;;;1.60;68.83;98393.41;5043806;28;20071;-44
2020/12/26 05:53:29;;;;;;;13.90;7.40;;;1.10;81.30;;;1.57;68.43;98398.81;5043941;28;20271;-45
2020/12/26 05:55:56;;;;;;;14.70;7.80;;;1.10;81.00;;;1.54;69.30;98394.59;5043418;28;20067;-46
2020/12/26 05:58:26;;;;;;;17.03;7.87;;;1.10;81.60;;;1.53;68.92;98394.66;5025963;28;20052;-44
2020/12/26 06:00:59;;;;;;;20.07;7.93;;;1.00;81.60;;;1.55;69.52;98405.94;5041372;28;20057;-44
2020/12/26 06:03:31;;;;;;;15.02;7.10;;;1.10;81.60;;;1.49;69.34;98415.00;5043773;28;20067;-46
2020/12/26 06:06:04;;;;;;;13.20;7.40;;;1.00;81.20;;;1.52;69.05;98414.00;5042848;28;20057;-44
2020/12/26 06:08:32;;;;;;;14.75;8.43;;;1.00;81.50;;;1.53;69.35;98413.91;5043647;28;20049;-44
2020/12/26 06:11:02;;;;;;;17.27;8.10;;;1.10;81.70;;;1.57;69.43;98410.19;5026094;28;20383;-45
2020/12/26 06:13:32;;;;;;;15.17;7.97;;;1.20;81.30;;;1.61;68.89;98412.59;5043537;28;20048;-46
2020/12/26 06:16:33;;;;;;;13.33;7.23;;;1.20;81.00;;;1.58;68.78;98411.84;5042083;28;20057;-45
2020/12/26 06:19:01;;;;;;;14.77;7.40;;;1.10;80.80;;;1.58;69.19;98409.22;4990457;28;20057;-48
2020/12/26 06:21:28;;;;;;;13.43;6.20;;;1.10;81.00;;;1.50;68.39;98424.56;5025576;28;20049;-45
2020/12/26 06:23:56;;;;;;;14.90;6.60;;;1.00;80.60;;;1.46;68.31;98425.66;5042368;28;20344;-44
2020/12/26 06:26:34;;;;;;;18.20;7.20;;;0.90;81.10;;;1.40;68.90;98420.78;5042772;28;20047;-47
2020/12/26 06:29:03;;;;;;;11.67;6.37;;;1.00;81.70;;;1.41;68.71;98421.59;5026083;28;20059;-45
2020/12/26 06:31:31;;;;;;;11.47;6.17;;;0.90;81.00;;;1.42;69.14;98421.53;5043086;28;20045;-45
2020/12/26 06:33:59;;;;;;;16.90;7.17;;;0.90;81.20;;;1.38;68.51;98423.47;5024949;28;20389;-45
2020/12/26 06:36:26;;;;;;;12.10;7.03;;;0.90;81.20;;;1.39;68.57;98426.94;5024608;28;20049;-45
2020/12/26 06:38:54;;;;;;;16.07;7.90;;;0.90;81.10;;;1.40;68.96;98433.03;5042589;28;20057;-46
2020/12/26 06:41:21;;;;;;;13.27;6.40;;;0.90;81.10;;;1.42;69.30;98439.06;5025792;28;20067;-44
2020/12/26 06:43:56;;;;;;;11.77;6.20;;;0.90;81.00;;;1.43;68.72;98432.88;5042244;28;20057;-44
2020/12/26 06:46:23;;;;;;;15.37;6.77;;;1.00;80.80;;;1.44;68.70;98430.16;5042259;28;20051;-46
2020/12/26 06:48:56;;;;;;;15.40;7.27;;;0.90;81.30;;;1.42;69.22;98432.03;5043335;28;20237;-46
2020/12/26 06:51:40;;;;;;;12.55;6.97;;;0.90;80.60;;;1.44;69.30;98424.06;5042870;28;20052;-46
2020/12/26 06:54:09;;;;;;;14.82;6.93;;;0.90;80.70;;;1.44;68.61;98429.31;5042796;28;20333;-46
2020/12/26 06:56:37;;;;;;;10.73;6.80;;;0.90;80.60;;;1.45;69.00;98428.38;5024960;28;20049;-45
2020/12/26 06:59:09;;;;;;;12.80;6.23;;;1.00;80.40;;;1.47;68.71;98427.34;5041979;28;20059;-45
2020/12/26 07:01:46;;;;;;;12.90;6.30;;;1.00;80.30;;;1.50;68.62;98426.34;5042642;28;20049;-46
2020/12/26 07:04:19;;;;;;;10.50;5.97;;;1.00;80.10;;;1.50;68.51;98426.34;5041862;28;20058;-46
2020/12/26 07:06:53;;;;;;;10.43;5.70;;;1.10;80.40;;;1.51;69.07;98431.53;5041187;28;20045;-45
2020/12/26 07:09:47;;;;;;;11.03;5.63;;;1.10;79.90;;;1.53;68.58;98436.66;5042492;28;20048;-46
2020/12/26 07:12:15;;;;;;;17.10;6.73;;;1.10;79.80;;;1.57;68.58;98435.56;5042505;28;20356;-45
2020/12/26 07:14:51;;;;;;;15.90;7.53;;;1.10;80.00;;;1.60;68.89;98450.31;5024800;28;20241;-47
2020/12/26 07:17:18;;;;;;;11.73;6.63;;;1.20;79.90;;;1.58;68.95;98447.75;5041245;28;20056;-45
2020/12/26 07:19:47;;;;;;;11.93;5.90;;;1.10;79.50;;;1.60;68.87;98439.81;5041400;28;20057;-45
2020/12/26 07:22:23;;;;;;;20.83;9.27;;;1.20;79.70;;;1.63;68.56;98431.75;5041636;28;20230;-45
2020/12/26 07:25:07;;;;;;;10.67;6.20;;;1.20;79.50;;;1.64;68.67;98439.53;5041125;28;20072;-46
2020/12/26 07:27:40;;;;;;;12.95;6.05;;;1.20;79.30;;;1.66;68.34;98435.03;5042295;28;20236;-46
2020/12/26 07:30:16;;;;;;;12.23;6.37;;;1.30;79.50;;;1.70;68.32;98440.97;5042144;28;20041;-45
2020/12/26 07:32:55;;;;;;;13.07;5.70;;;1.30;79.10;;;1.71;68.96;98443.53;5042191;28;20045;-44
2020/12/26 07:35:35;;;;;;;11.90;6.27;;;1.40;79.00;;;1.73;68.79;98446.91;5041727;28;20037;-47
2020/12/26 07:38:11;;;;;;;11.37;6.17;;;1.30;78.90;;;1.73;68.92;98446.06;5041599;28;20247;-45
2020/12/26 07:40:46;;;;;;;15.73;8.63;;;1.30;78.60;;;1.76;68.49;98430.13;5041357;28;20079;-45
2020/12/26 07:43:17;;;;;;;22.87;16.10;;;1.40;78.90;;;1.76;68.41;98427.50;5042087;28;20060;-44
2020/12/26 07:45:46;;;;;;;19.87;8.97;;;1.40;78.60;;;1.75;68.64;98428.44;5041484;28;20059;-45
2020/12/26 07:48:14;;;;;;;16.20;8.33;;;1.40;78.30;;;1.76;68.74;98424.88;5041082;28;20337;-45
2020/12/26 07:50:42;;;;;;;12.07;5.90;;;1.40;78.60;;;1.79;68.21;98432.59;5041439;28;20230;-44
2020/12/26 07:53:14;;;;;;;14.77;6.13;;;1.40;78.30;;;1.83;68.40;98423.59;5041180;28;20049;-45
2020/12/26 07:55:42;;;;;;;15.77;6.00;;;1.40;77.80;;;1.84;68.49;98416.56;5041415;28;20041;-44
2020/12/26 07:58:15;;;;;;;11.27;5.30;;;1.40;77.60;;;1.87;68.07;98411.97;5041638;28;20056;-45
2020/12/26 08:00:44;;;;;;;10.57;5.72;;;1.50;77.80;;;1.88;68.40;98413.69;5040278;28;20351;-46
2020/12/26 08:03:14;;;;;;;10.20;6.23;;;1.50;77.50;;;1.91;67.94;98407.41;5041657;28;20052;-49
2020/12/26 08:05:49;;;;;;;11.77;6.03;;;1.60;78.70;;;1.92;68.51;98395.94;5040621;28;20058;-50
2020/12/26 08:08:27;;;;;;;18.63;11.65;;;1.60;77.60;;;1.95;68.48;98403.66;5041103;28;20041;-46
2020/12/26 08:11:00;;;;;;;37.23;17.67;;;1.60;77.30;;;1.96;68.28;98397.50;5040111;28;20068;-45
2020/12/26 08:13:29;;;;;;;16.23;8.95;;;1.60;77.10;;;1.95;68.07;98398.41;5038145;28;20313;-45
2020/12/26 08:16:05;;;;;;;14.27;7.17;;;1.60;77.10;;;1.93;67.84;98403.75;5040520;28;20045;-50
2020/12/26 08:18:36;;;;;;;13.20;6.23;;;1.50;77.10;;;1.92;67.58;98399.44;5040625;28;20273;-46
2020/12/26 08:21:06;;;;;;;12.90;6.63;;;1.50;77.30;;;1.92;67.62;98398.56;5038250;28;20244;-45
2020/12/26 08:23:34;;;;;;;11.10;6.23;;;1.50;77.00;;;1.91;67.41;98391.66;5039940;28;20349;-45
2020/12/26 08:26:02;;;;;;;23.67;13.00;;;1.50;77.60;;;1.92;68.11;98391.56;5038867;28;20256;-46
2020/12/26 08:28:30;;;;;;;14.10;7.83;;;1.50;77.60;;;1.92;67.88;98391.56;5040487;28;20046;-46
2020/12/26 08:31:02;;;;;;;13.07;7.67;;;1.50;77.60;;;1.95;68.15;98396.63;5039273;28;20387;-45
2020/12/26 08:33:40;;;;;;;13.47;7.70;;;1.60;76.40;;;1.98;67.54;98398.25;5023589;28;20045;-45
2020/12/26 08:36:22;;;;;;;8.80;4.77;;;1.60;76.50;;;2.01;67.51;98405.09;5039229;28;20055;-49
2020/12/26 08:39:00;;;;;;;10.47;5.03;;;1.60;76.50;;;2.05;67.49;98401.34;5023994;28;20056;-48
2020/12/26 08:41:30;;;;;;;9.73;5.30;;;1.70;76.20;;;2.08;67.09;98404.66;5039992;28;20049;-46
2020/12/26 08:43:57;;;;;;;9.97;4.00;;;1.80;76.10;;;2.12;67.29;98402.69;5039522;28;20233;-46
2020/12/26 08:46:25;;;;;;;9.23;4.90;;;1.80;75.80;;;2.16;67.42;98407.66;5039791;28;20088;-46
2020/12/26 08:48:56;;;;;;;9.67;4.37;;;1.90;75.80;;;2.20;67.39;98407.50;5038855;28;20046;-47
2020/12/26 08:51:29;;;;;;;8.43;4.07;;;1.90;75.40;;;2.23;65.88;98412.56;5040248;28;20071;-47
2020/12/26 08:53:57;;;;;;;8.37;4.53;;;2.00;74.90;;;2.27;66.85;98424.56;5039224;28;20490;-45
2020/12/26 08:56:39;;;;;;;12.17;4.80;;;2.00;74.20;;;2.19;66.44;98432.06;5038463;28;20049;-46
2020/12/26 08:59:06;;;;;;;10.97;5.40;;;1.90;74.20;;;2.10;66.70;98439.56;5051753;28;20041;-47
2020/12/26 09:01:35;;;;;;;7.47;5.63;;;1.70;75.70;;;2.11;66.75;98440.38;5059510;28;20048;-47
2020/12/26 09:04:03;;;;;;;9.97;6.13;;;1.70;77.00;;;2.14;67.37;98448.94;5058731;28;20067;-45
2020/12/26 09:06:39;;;;;;;10.83;5.57;;;1.80;77.00;;;2.19;67.48;98445.19;5059234;28;20045;-49
2020/12/26 09:09:22;;;;;;;7.83;5.37;;;1.90;75.80;;;2.15;66.48;98450.66;5062999;28;20041;-49
2020/12/26 09:12:04;;;;;;;12.53;6.37;;;1.80;74.70;;;2.13;67.09;98452.53;5062347;28;20053;-46
2020/12/26 09:14:32;;;;;;;10.40;6.23;;;1.70;76.10;;;2.16;66.74;98459.38;5063088;28;20103;-49
2020/12/26 09:17:02;;;;;;;9.27;5.90;;;1.80;76.50;;;2.20;67.09;98466.13;5062509;28;20057;-48
2020/12/26 09:19:47;;;;;;;13.63;6.03;;;1.80;76.80;;;2.25;67.06;98468.50;5063553;28;20248;-47
2020/12/26 09:22:14;;;;;;;;;;;1.90;75.80;;;2.25;67.29;98468.50;5062509;28;20048;-46
2020/12/26 09:24:43;;;;;;;9.23;5.90;;;1.90;74.90;;;2.29;66.52;98478.75;5063005;28;19983;-47
2020/12/26 09:27:21;;;;;;;9.57;5.40;;;1.90;75.50;;;2.33;66.92;98482.88;5062733;28;20041;-48
2020/12/26 09:30:02;;;;;;;10.90;5.40;;;2.00;75.60;;;2.35;67.03;98488.06;5064116;28;20051;-46
2020/12/26 09:32:29;;;;;;;9.37;5.60;;;1.90;75.30;;;2.25;66.37;98477.25;5063400;28;20049;-45
2020/12/26 09:34:56;;;;;;;12.33;5.93;;;1.80;74.90;;;2.28;66.17;98487.56;5063721;28;20055;-45
2020/12/26 09:37:24;;;;;;;9.27;5.63;;;1.90;75.30;;;2.21;66.32;98488.88;5063090;28;20053;-45
2020/12/26 09:39:51;;;;;;;13.93;7.33;;;1.70;75.00;;;2.24;66.63;98485.19;5062921;28;20067;-45
2020/12/26 09:42:25;;;;;;;13.70;6.47;;;1.80;76.50;;;2.28;66.69;98481.47;5063493;28;20053;-46
2020/12/26 09:44:52;;;;;;;11.90;6.13;;;1.90;76.40;;;2.33;66.94;98482.88;5040563;28;20057;-46
2020/12/26 09:47:19;;;;;;;13.33;8.70;;;2.00;75.60;;;2.40;66.60;98470.22;5043524;28;20048;-48
2020/12/26 09:49:47;;;;;;;12.00;7.73;;;2.10;75.30;;;2.45;66.54;98468.19;5043907;28;20045;-49
2020/12/26 09:52:14;;;;;;;13.83;8.70;;;2.10;75.70;;;2.51;66.79;98480.97;5043549;28;20049;-46
2020/12/26 09:54:41;;;;;;;8.70;5.57;;;2.30;75.80;;;2.57;67.11;98485.00;5043831;28;20046;-46
2020/12/26 09:57:09;;;;;;;7.60;5.30;;;2.30;74.60;;;2.61;66.80;98480.44;5043777;28;20049;-46
2020/12/26 09:59:42;;;;;;;8.77;5.93;;;2.40;74.80;;;2.66;67.13;98478.38;5043916;28;20055;-46
2020/12/26 10:02:09;;;;;;;10.88;4.90;;;2.40;74.70;;;2.70;66.72;98477.25;5042810;28;20073;-45
2020/12/26 10:04:53;;;;;;;9.63;5.32;;;2.40;74.20;;;2.74;66.81;98484.03;5043407;28;20053;-44
2020/12/26 10:07:21;;;;;;;9.43;4.70;;;2.50;74.00;;;2.75;66.13;98473.41;5043490;28;20041;-44
2020/12/26 10:09:48;;;;;;;9.13;5.23;;;2.40;74.00;;;2.79;66.55;98476.69;5043113;28;20261;-45
2020/12/26 10:12:16;;;;;;;16.03;8.70;;;2.50;73.80;;;2.81;66.10;98473.97;5042893;28;20045;-44
2020/12/26 10:14:43;;;;;;;17.13;8.83;;;2.60;73.30;;;2.82;66.09;98468.63;5042394;28;20345;-44
2020/12/26 10:17:10;;;;;;;12.30;7.17;;;2.60;73.20;;;2.87;66.04;98463.94;5043203;28;20256;-44
2020/12/26 10:19:38;;;;;;;11.07;7.90;;;2.60;72.90;;;2.90;65.98;98474.25;5042504;28;20045;-50
2020/12/26 10:22:05;;;;;;;9.60;5.07;;;2.70;72.50;;;2.93;65.82;98468.81;5043248;28;20055;-45
2020/12/26 10:24:32;;;;;;;9.03;4.47;;;2.70;72.60;;;2.96;65.68;98467.78;5043268;28;20249;-45
2020/12/26 10:27:00;;;;;;;9.33;4.70;;;2.70;72.20;;;3.00;65.55;98463.19;5042894;28;20053;-45
2020/12/26 10:29:27;;;;;;;8.53;5.07;;;2.70;72.50;;;3.04;65.75;98462.06;5043200;28;20037;-45
2020/12/26 10:31:54;;;;;;;9.63;5.13;;;2.80;71.90;;;3.05;65.67;98461.13;5042728;28;20049;-45
2020/12/26 10:34:22;;;;;;;8.57;5.20;;;2.80;72.70;;;3.09;65.39;98460.00;5042967;28;20221;-46
2020/12/26 10:36:49;;;;;;;9.93;4.90;;;2.90;72.90;;;3.12;65.87;98457.16;5042599;28;20205;-47
2020/12/26 10:39:17;;;;;;;7.73;5.17;;;2.90;72.90;;;3.17;65.76;98463.00;5042907;28;20080;-46